createdAt,value
2023-04-09T00:01:11.700Z,17.33
2023-04-09T00:03:40.715Z,15.23
2023-04-09T00:06:08.818Z,17.83
2023-04-09T00:08:38.265Z,15.10
2023-04-09T00:11:05.766Z,17.55
2023-04-09T00:13:39.285Z,17.27
2023-04-09T00:16:07.900Z,13.85
2023-04-09T00:18:35.103Z,17.70
2023-04-09T00:21:02.789Z,16.58
2023-04-09T00:23:29.944Z,16.38
2023-04-09T00:26:00.621Z,15.77
2023-04-09T00:28:28.724Z,15.65
2023-04-09T00:31:01.754Z,19.88
2023-04-09T00:33:30.619Z,18.05
2023-04-09T00:35:58.310Z,16.00
2023-04-09T00:38:25.314Z,15.10
2023-04-09T00:40:54.332Z,14.95
2023-04-09T00:43:23.036Z,19.73
2023-04-09T00:45:50.728Z,19.67
2023-04-09T00:48:18.466Z,17.25
2023-04-09T00:50:45.440Z,19.83
2023-04-09T00:53:13.162Z,18.70
2023-04-09T00:55:41.604Z,14.25
2023-04-09T00:58:09.668Z,15.38
2023-04-09T01:00:36.387Z,17.48
2023-04-09T01:03:03.448Z,19.92
2023-04-09T01:05:54.434Z,19.23
2023-04-09T01:08:44.274Z,13.68
2023-04-09T01:11:47.146Z,18.30
2023-04-09T01:14:51.467Z,16.75
2023-04-09T01:17:24.487Z,15.27
2023-04-09T01:19:59.547Z,18.33
2023-04-09T01:22:31.148Z,15.88
2023-04-09T01:25:10.381Z,15.10
2023-04-09T01:28:00.231Z,18.02
2023-04-09T01:30:28.962Z,18.65
2023-04-09T01:32:58.109Z,20.48
2023-04-09T01:35:27.158Z,18.13
2023-04-09T01:37:54.895Z,15.90
2023-04-09T01:40:22.633Z,15.85
2023-04-09T01:42:50.160Z,16.25
2023-04-09T01:45:17.365Z,17.73
2023-04-09T01:47:44.938Z,18.27
2023-04-09T01:50:12.432Z,20.80
2023-04-09T01:52:40.461Z,18.55
2023-04-09T01:55:09.027Z,18.33
2023-04-09T01:57:36.625Z,16.20
2023-04-09T02:00:05.090Z,18.45
2023-04-09T02:03:07.218Z,16.20
2023-04-09T02:05:39.020Z,16.60
2023-04-09T02:08:09.937Z,19.50
2023-04-09T02:10:39.847Z,15.65
2023-04-09T02:13:10.088Z,14.70
2023-04-09T02:15:39.529Z,14.25
2023-04-09T02:18:24.973Z,12.52
2023-04-09T02:20:52.898Z,16.33
2023-04-09T02:23:20.694Z,17.17
2023-04-09T02:25:47.959Z,14.30
2023-04-09T02:28:15.495Z,14.20
2023-04-09T02:30:42.268Z,16.20
2023-04-09T02:33:09.476Z,17.70
2023-04-09T02:35:36.722Z,16.55
2023-04-09T02:38:03.920Z,14.38
2023-04-09T02:40:32.271Z,13.25
2023-04-09T02:42:59.438Z,15.85
2023-04-09T02:45:26.166Z,13.55
2023-04-09T02:47:53.151Z,11.80
2023-04-09T02:50:20.460Z,14.98
2023-04-09T02:52:50.982Z,11.98
2023-04-09T02:55:18.906Z,14.00
2023-04-09T02:57:45.735Z,12.32
2023-04-09T03:00:13.843Z,14.60
2023-04-09T03:02:41.980Z,16.35
2023-04-09T03:05:09.611Z,14.63
2023-04-09T03:07:36.699Z,16.55
2023-04-09T03:10:04.022Z,13.55
2023-04-09T03:12:31.392Z,12.15
2023-04-09T03:14:58.758Z,13.10
2023-04-09T03:17:27.519Z,10.57
2023-04-09T03:22:23.455Z,12.77
2023-04-09T03:24:53.014Z,13.35
2023-04-09T03:27:19.763Z,14.13
2023-04-09T03:29:50.647Z,12.50
2023-04-09T03:32:19.085Z,12.15
2023-04-09T03:34:47.143Z,13.77
2023-04-09T03:37:15.130Z,13.98
2023-04-09T03:39:42.686Z,14.02
2023-04-09T03:42:10.259Z,11.70
2023-04-09T03:44:45.633Z,17.85
2023-04-09T03:47:17.907Z,23.13
2023-04-09T03:49:45.882Z,28.55
2023-04-09T03:52:21.103Z,13.48
2023-04-09T03:57:25.430Z,12.02
2023-04-09T03:59:54.501Z,11.18
2023-04-09T04:02:23.717Z,14.85
2023-04-09T04:05:00.461Z,11.88
2023-04-09T04:07:33.161Z,12.98
2023-04-09T04:10:07.630Z,11.77
2023-04-09T04:12:34.994Z,12.63
2023-04-09T04:15:12.295Z,12.25
2023-04-09T04:17:51.023Z,14.00
2023-04-09T04:20:41.492Z,11.90
2023-04-09T04:23:14.387Z,11.63
2023-04-09T04:26:02.141Z,13.50
2023-04-09T04:28:33.930Z,15.40
2023-04-09T04:31:01.691Z,15.57
2023-04-09T04:33:31.513Z,13.68
2023-04-09T04:36:13.183Z,14.82
2023-04-09T04:38:44.807Z,12.70
2023-04-09T04:41:18.395Z,13.90
2023-04-09T04:43:52.951Z,17.38
2023-04-09T04:46:23.131Z,14.40
2023-04-09T04:48:50.197Z,17.27
2023-04-09T04:51:17.844Z,14.20
2023-04-09T04:53:56.952Z,15.90
2023-04-09T04:56:24.776Z,14.82
2023-04-09T04:59:12.309Z,15.43
2023-04-09T05:01:57.628Z,14.65
2023-04-09T05:04:26.521Z,14.90
2023-04-09T05:09:24.263Z,12.05
2023-04-09T05:12:00.351Z,14.95
2023-04-09T05:14:27.530Z,14.82
2023-04-09T05:16:55.023Z,14.88
2023-04-09T05:19:26.261Z,14.63
2023-04-09T05:21:59.340Z,16.00
2023-04-09T05:24:27.897Z,15.10
2023-04-09T05:26:55.070Z,15.77
2023-04-09T05:29:23.060Z,15.27
2023-04-09T05:31:50.544Z,13.27
2023-04-09T05:34:31.507Z,16.65
2023-04-09T05:36:58.712Z,16.05
2023-04-09T05:39:26.437Z,15.27
2023-04-09T05:41:54.058Z,15.25
2023-04-09T05:44:22.288Z,16.50
2023-04-09T05:46:52.359Z,14.60
2023-04-09T05:49:25.247Z,16.83
2023-04-09T05:51:55.659Z,18.85
2023-04-09T05:54:29.816Z,16.30
2023-04-09T05:56:57.852Z,15.52
2023-04-09T05:59:25.327Z,14.00
2023-04-09T06:01:53.131Z,16.00
2023-04-09T06:04:21.545Z,13.73
2023-04-09T06:06:48.843Z,14.20
2023-04-09T06:09:15.633Z,13.43
2023-04-09T06:11:42.509Z,12.52
2023-04-09T06:14:12.541Z,12.30
2023-04-09T06:16:39.846Z,15.68
2023-04-09T06:19:06.833Z,13.55
2023-04-09T06:21:34.449Z,16.13
2023-04-09T06:24:01.646Z,18.38
2023-04-09T06:26:28.860Z,16.85
2023-04-09T06:28:56.705Z,15.52
2023-04-09T06:31:24.695Z,13.85
2023-04-09T06:33:52.641Z,17.70
2023-04-09T06:36:20.528Z,15.02
2023-04-09T06:38:47.608Z,16.08
2023-04-09T06:41:15.134Z,15.45
2023-04-09T06:43:42.384Z,17.00
2023-04-09T06:46:09.776Z,14.82
2023-04-09T06:48:37.093Z,18.63
2023-04-09T06:51:04.898Z,16.15
2023-04-09T06:53:32.265Z,16.98
2023-04-09T06:55:59.766Z,17.70
2023-04-09T06:58:27.371Z,15.57
2023-04-09T07:00:55.010Z,17.60
2023-04-09T07:03:23.227Z,14.20
2023-04-09T07:05:50.764Z,13.70
2023-04-09T07:08:17.855Z,14.48
2023-04-09T07:10:47.512Z,12.27
2023-04-09T07:13:15.015Z,14.40
2023-04-09T07:15:42.665Z,15.68
2023-04-09T07:18:10.281Z,14.00
2023-04-09T07:20:37.406Z,11.55
2023-04-09T07:23:05.256Z,13.82
2023-04-09T07:25:33.479Z,13.77
2023-04-09T07:28:00.797Z,10.93
2023-04-09T07:30:27.844Z,14.63
2023-04-09T07:32:55.365Z,14.07
2023-04-09T07:35:22.482Z,12.40
2023-04-09T07:37:49.488Z,11.82
2023-04-09T07:40:17.058Z,12.10
2023-04-09T07:42:44.210Z,12.88
2023-04-09T07:45:11.314Z,10.63
2023-04-09T07:47:42.427Z,11.52
2023-04-09T07:50:10.665Z,12.63
2023-04-09T07:52:37.971Z,14.50
2023-04-09T07:55:06.316Z,11.65
2023-04-09T07:57:33.809Z,12.70
2023-04-09T08:00:02.269Z,15.13
2023-04-09T08:02:40.274Z,13.07
2023-04-09T08:05:08.896Z,13.30
2023-04-09T08:07:38.178Z,9.30
2023-04-09T08:10:07.646Z,12.70
2023-04-09T08:15:03.857Z,11.55
2023-04-09T08:17:31.212Z,13.52
2023-04-09T08:19:58.562Z,11.90
2023-04-09T08:22:26.004Z,10.60
2023-04-09T08:24:53.626Z,11.73
2023-04-09T08:27:22.246Z,9.88
2023-04-09T08:29:49.694Z,12.73
2023-04-09T08:32:17.627Z,12.07
2023-04-09T08:34:45.687Z,10.73
2023-04-09T08:37:13.167Z,9.30
2023-04-09T08:39:40.450Z,11.18
2023-04-09T08:42:09.061Z,12.05
2023-04-09T08:44:36.255Z,11.60
2023-04-09T08:47:03.477Z,10.95
2023-04-09T08:49:30.582Z,10.38
2023-04-09T08:51:57.639Z,9.98
2023-04-09T08:54:27.341Z,9.98
2023-04-09T08:56:54.665Z,11.75
2023-04-09T08:59:22.201Z,11.13
2023-04-09T09:01:54.625Z,11.60
2023-04-09T09:04:22.326Z,12.25
2023-04-09T09:06:49.706Z,10.90
2023-04-09T09:09:19.398Z,8.55
2023-04-09T09:11:52.102Z,9.82
2023-04-09T09:14:19.715Z,10.88
2023-04-09T09:16:55.569Z,12.20
2023-04-09T09:19:26.605Z,10.15
2023-04-09T09:22:06.372Z,12.82
2023-04-09T09:24:34.747Z,10.05
2023-04-09T09:27:02.971Z,10.38
2023-04-09T09:29:30.392Z,12.40
2023-04-09T09:31:57.679Z,10.95
2023-04-09T09:34:26.230Z,10.25
2023-04-09T09:36:54.110Z,11.55
2023-04-09T09:39:22.326Z,9.40
2023-04-09T09:42:07.967Z,11.07
2023-04-09T09:44:36.033Z,11.00
2023-04-09T09:47:04.561Z,11.63
2023-04-09T09:49:31.959Z,9.43
2023-04-09T09:52:03.343Z,10.32
2023-04-09T09:54:41.070Z,10.50
2023-04-09T09:57:10.414Z,9.48
2023-04-09T09:59:39.007Z,10.70
2023-04-09T10:02:07.780Z,9.82
2023-04-09T10:04:36.398Z,9.88
2023-04-09T10:07:08.383Z,10.82
2023-04-09T10:09:38.154Z,9.52
2023-04-09T10:12:07.351Z,9.02
2023-04-09T10:14:36.046Z,10.70
2023-04-09T10:19:39.614Z,10.75
2023-04-09T10:22:12.546Z,11.50
2023-04-09T10:24:40.280Z,8.80
2023-04-09T10:27:16.401Z,10.63
2023-04-09T10:29:46.603Z,9.32
2023-04-09T10:32:21.273Z,9.98
2023-04-09T10:34:50.705Z,10.55
2023-04-09T10:37:26.297Z,10.98
2023-04-09T10:39:54.073Z,8.75
2023-04-09T10:42:24.812Z,9.45
2023-04-09T10:45:11.528Z,9.90
2023-04-09T10:47:42.845Z,8.43
2023-04-09T10:50:18.815Z,8.25
2023-04-09T10:52:46.492Z,10.85
2023-04-09T10:55:40.566Z,8.65
2023-04-09T10:58:13.462Z,8.32
2023-04-09T11:00:49.173Z,7.85
2023-04-09T11:03:30.587Z,9.15
2023-04-09T11:06:01.086Z,8.98
2023-04-09T11:08:32.714Z,11.02
2023-04-09T11:11:01.555Z,8.25
2023-04-09T11:13:29.805Z,7.80
2023-04-09T11:15:57.638Z,7.80
2023-04-09T11:18:26.625Z,9.43
2023-04-09T11:20:58.048Z,7.45
2023-04-09T11:23:26.033Z,9.98
2023-04-09T11:25:54.611Z,7.32
2023-04-09T11:28:21.952Z,8.50
2023-04-09T11:30:51.764Z,8.75
2023-04-09T11:33:20.280Z,8.20
2023-04-09T11:38:15.998Z,6.68
2023-04-09T11:40:48.876Z,9.20
2023-04-09T11:43:17.216Z,5.97
2023-04-09T11:45:44.631Z,5.43
2023-04-09T11:48:12.247Z,7.88
2023-04-09T11:50:39.257Z,4.43
2023-04-09T11:53:19.981Z,8.98
2023-04-09T11:55:48.560Z,6.50
2023-04-09T11:58:15.762Z,4.60
2023-04-09T12:00:42.549Z,6.28
2023-04-09T12:03:10.882Z,6.93
2023-04-09T12:05:40.575Z,5.85
2023-04-09T12:08:09.061Z,6.90
2023-04-09T12:10:37.710Z,6.63
2023-04-09T12:15:37.392Z,6.75
2023-04-09T12:18:04.557Z,6.90
2023-04-09T12:20:32.800Z,5.75
2023-04-09T12:23:01.270Z,5.78
2023-04-09T12:25:28.256Z,6.63
2023-04-09T12:27:56.725Z,6.15
2023-04-09T12:30:24.327Z,7.30
2023-04-09T12:32:52.914Z,5.63
2023-04-09T12:35:20.253Z,5.80
2023-04-09T12:37:47.550Z,5.78
2023-04-09T12:40:14.938Z,7.60
2023-04-09T12:42:42.464Z,6.95
2023-04-09T12:45:11.643Z,5.63
2023-04-09T12:47:39.914Z,3.42
2023-04-09T12:50:07.963Z,5.07
2023-04-09T12:52:35.133Z,5.47
2023-04-09T12:55:02.360Z,6.78
2023-04-09T12:57:29.843Z,7.45
2023-04-09T12:59:57.923Z,7.72
2023-04-09T13:02:26.177Z,9.35
2023-04-09T13:04:55.814Z,7.55
2023-04-09T13:07:24.438Z,7.20
2023-04-09T13:09:51.681Z,6.38
2023-04-09T13:12:18.881Z,8.95
2023-04-09T13:14:46.731Z,6.82
2023-04-09T13:17:13.940Z,5.55
2023-04-09T13:19:42.683Z,6.38
2023-04-09T13:22:10.634Z,8.02
2023-04-09T13:24:38.235Z,5.15
2023-04-09T13:27:05.564Z,5.55
2023-04-09T13:29:32.276Z,5.20
2023-04-09T13:31:59.101Z,5.65
2023-04-09T13:34:25.883Z,5.35
2023-04-09T13:36:52.694Z,5.80
2023-04-09T13:39:19.352Z,5.40
2023-04-09T13:41:46.250Z,5.70
2023-04-09T13:44:12.972Z,6.20
2023-04-09T13:46:39.946Z,3.35
2023-04-09T13:49:07.124Z,6.20
2023-04-09T13:51:34.041Z,7.35
2023-04-09T13:54:02.795Z,5.57
2023-04-09T13:56:31.433Z,5.80
2023-04-09T13:58:58.131Z,6.03
2023-04-09T14:01:27.602Z,8.52
2023-04-09T14:03:54.620Z,5.47
2023-04-09T14:06:21.591Z,5.60
2023-04-09T14:08:48.323Z,5.38
2023-04-09T14:11:16.717Z,5.53
2023-04-09T14:13:43.441Z,5.13
2023-04-09T14:16:10.363Z,4.57
2023-04-09T14:18:37.274Z,6.35
2023-04-09T14:21:04.182Z,6.05
2023-04-09T14:23:30.935Z,5.40
2023-04-09T14:25:57.635Z,5.63
2023-04-09T14:28:24.481Z,7.63
2023-04-09T14:30:51.194Z,6.93
2023-04-09T14:33:18.155Z,5.60
2023-04-09T14:35:44.875Z,5.47
2023-04-09T14:38:11.734Z,6.38
2023-04-09T14:40:38.467Z,5.72
2023-04-09T14:43:05.201Z,6.50
2023-04-09T14:45:32.265Z,7.32
2023-04-09T14:47:59.095Z,4.93
2023-04-09T14:50:25.889Z,6.28
2023-04-09T14:52:52.722Z,4.97
2023-04-09T14:55:19.831Z,5.35
2023-04-09T14:57:46.731Z,7.18
2023-04-09T15:00:14.059Z,5.78
2023-04-09T15:02:41.547Z,6.18
2023-04-09T15:05:08.932Z,5.70
2023-04-09T15:07:35.779Z,5.70
2023-04-09T15:10:02.712Z,6.43
2023-04-09T15:12:31.667Z,9.05
2023-04-09T15:14:58.739Z,7.10
2023-04-09T15:17:26.612Z,6.35
2023-04-09T15:19:54.073Z,6.03
2023-04-09T15:22:21.466Z,5.63
2023-04-09T15:24:48.276Z,8.00
2023-04-09T15:27:15.159Z,6.68
2023-04-09T15:29:41.914Z,6.50
2023-04-09T15:32:08.724Z,5.53
2023-04-09T15:34:35.657Z,8.95
2023-04-09T15:37:02.438Z,6.38
2023-04-09T15:39:29.147Z,6.25
2023-04-09T15:41:59.246Z,6.18
2023-04-09T15:44:26.167Z,6.30
2023-04-09T15:46:53.072Z,6.32
2023-04-09T15:49:20.149Z,8.15
2023-04-09T15:51:46.889Z,6.28
2023-04-09T15:54:13.574Z,6.70
2023-04-09T15:56:40.447Z,7.18
2023-04-09T15:59:08.346Z,7.20
2023-04-09T16:01:36.626Z,8.00
2023-04-09T16:04:04.862Z,6.35
2023-04-09T16:06:32.069Z,5.97
2023-04-09T16:08:59.033Z,6.35
2023-04-09T16:11:26.021Z,6.95
2023-04-09T16:13:52.819Z,6.00
2023-04-09T16:16:19.907Z,6.65
2023-04-09T16:18:46.684Z,9.18
2023-04-09T16:21:13.379Z,6.03
2023-04-09T16:23:40.821Z,6.32
2023-04-09T16:26:07.583Z,3.42
2023-04-09T16:28:34.395Z,6.22
2023-04-09T16:31:01.257Z,5.95
2023-04-09T16:33:27.979Z,6.03
2023-04-09T16:35:54.738Z,5.28
2023-04-09T16:38:23.569Z,5.05
2023-04-09T16:40:50.684Z,4.38
2023-04-09T16:43:17.453Z,4.82
2023-04-09T16:45:44.278Z,4.85
2023-04-09T16:48:12.498Z,5.47
2023-04-09T16:50:40.479Z,6.07
2023-04-09T16:53:07.660Z,7.43
2023-04-09T16:55:34.728Z,6.07
2023-04-09T16:58:01.651Z,6.88
2023-04-09T17:00:28.504Z,7.70
2023-04-09T17:02:56.531Z,7.50
2023-04-09T17:05:23.781Z,7.75
2023-04-09T17:07:50.610Z,6.30
2023-04-09T17:10:18.706Z,6.88
2023-04-09T17:12:45.870Z,3.88
2023-04-09T17:15:12.755Z,5.75
2023-04-09T17:17:39.645Z,7.25
2023-04-09T17:20:07.146Z,9.02
2023-04-09T17:22:35.134Z,8.40
2023-04-09T17:25:02.484Z,9.02
2023-04-09T17:27:29.271Z,8.88
2023-04-09T17:29:56.436Z,8.30
2023-04-09T17:32:23.229Z,8.43
2023-04-09T17:34:50.726Z,8.43
2023-04-09T17:37:17.460Z,8.88
2023-04-09T17:39:44.145Z,11.85
2023-04-09T17:42:14.212Z,12.00
2023-04-09T17:44:43.673Z,12.30
2023-04-09T17:47:11.632Z,9.60
2023-04-09T17:49:39.276Z,9.00
2023-04-09T17:52:06.190Z,9.50
2023-04-09T17:54:34.626Z,8.20
2023-04-09T17:57:04.259Z,6.93
2023-04-09T17:59:32.258Z,8.40
2023-04-09T18:01:59.094Z,8.88
2023-04-09T18:04:27.165Z,8.75
2023-04-09T18:06:55.364Z,9.48
2023-04-09T18:09:22.194Z,7.45
2023-04-09T18:11:49.239Z,9.07
2023-04-09T18:14:16.141Z,9.10
2023-04-09T18:16:42.940Z,8.80
2023-04-09T18:19:11.879Z,8.57
2023-04-09T18:21:38.883Z,9.30
2023-04-09T18:24:06.031Z,9.35
2023-04-09T18:26:33.949Z,7.25
2023-04-09T18:29:01.843Z,8.35
2023-04-09T18:31:28.751Z,8.98
2023-04-09T18:33:55.588Z,8.95
2023-04-09T18:36:22.375Z,8.60
2023-04-09T18:38:49.121Z,9.95
2023-04-09T18:41:26.126Z,9.23
2023-04-09T18:43:53.397Z,8.77
2023-04-09T18:46:20.179Z,8.60
2023-04-09T18:48:47.152Z,7.78
2023-04-09T18:51:14.523Z,10.07
2023-04-09T18:53:42.039Z,8.13
2023-04-09T18:56:09.015Z,8.38
2023-04-09T18:58:36.364Z,7.82
2023-04-09T19:01:11.783Z,10.10
2023-04-09T19:03:40.020Z,11.15
2023-04-09T19:06:15.083Z,6.90
2023-04-09T19:08:41.986Z,8.60
2023-04-09T19:11:08.772Z,8.68
2023-04-09T19:13:37.143Z,9.82
2023-04-09T19:16:04.434Z,9.40
2023-04-09T19:18:32.052Z,10.05
2023-04-09T19:20:58.764Z,8.25
2023-04-09T19:23:26.449Z,9.73
2023-04-09T19:25:55.350Z,8.82
2023-04-09T19:28:22.497Z,9.50
2023-04-09T19:30:52.461Z,9.77
2023-04-09T19:33:23.651Z,9.57
2023-04-09T19:35:51.435Z,9.48
2023-04-09T19:38:19.411Z,8.70
2023-04-09T19:40:46.441Z,8.02
2023-04-09T19:43:13.507Z,9.30
2023-04-09T19:45:42.702Z,7.85
2023-04-09T19:48:09.736Z,8.90
2023-04-09T19:50:38.070Z,6.72
2023-04-09T19:53:05.970Z,9.50
2023-04-09T19:55:35.635Z,8.55
2023-04-09T19:58:03.128Z,9.30
2023-04-09T20:00:29.948Z,9.82
2023-04-09T20:02:57.524Z,8.65
2023-04-09T20:05:24.555Z,9.20
2023-04-09T20:07:52.769Z,9.60
2023-04-09T20:10:19.973Z,9.32
2023-04-09T20:12:47.759Z,10.45
2023-04-09T20:15:15.446Z,9.13
2023-04-09T20:17:42.769Z,10.55
2023-04-09T20:20:09.700Z,8.75
2023-04-09T20:22:36.454Z,9.80
2023-04-09T20:25:03.147Z,9.70
2023-04-09T20:27:29.817Z,12.35
2023-04-09T20:29:56.555Z,10.45
2023-04-09T20:32:23.398Z,9.77
2023-04-09T20:34:50.272Z,9.13
2023-04-09T20:37:17.092Z,7.88
2023-04-09T20:39:43.776Z,10.23
2023-04-09T20:42:10.681Z,9.48
2023-04-09T20:44:38.229Z,9.73
2023-04-09T20:47:05.117Z,8.70
2023-04-09T20:49:31.958Z,9.82
2023-04-09T20:51:58.700Z,9.50
2023-04-09T20:54:25.835Z,10.32
2023-04-09T20:56:52.537Z,8.60
2023-04-09T20:59:19.523Z,10.05
2023-04-09T21:01:46.406Z,11.73
2023-04-09T21:04:13.422Z,11.30
2023-04-09T21:06:40.481Z,9.63
2023-04-09T21:09:07.213Z,10.10
2023-04-09T21:11:33.899Z,10.38
2023-04-09T21:14:00.682Z,9.77
2023-04-09T21:16:28.595Z,11.07
2023-04-09T21:18:55.766Z,10.63
2023-04-09T21:21:22.575Z,9.88
2023-04-09T21:23:49.351Z,10.52
2023-04-09T21:26:16.420Z,11.43
2023-04-09T21:28:44.242Z,15.20
2023-04-09T21:31:11.330Z,16.13
2023-04-09T21:33:39.373Z,9.77
2023-04-09T21:36:07.925Z,10.50
2023-04-09T21:41:02.073Z,9.55
2023-04-09T21:43:29.391Z,11.30
2023-04-09T21:45:57.176Z,11.50
2023-04-09T21:48:24.698Z,8.98
2023-04-09T21:50:51.880Z,10.25
2023-04-09T21:53:19.350Z,10.40
2023-04-09T21:55:47.430Z,10.85
2023-04-09T21:58:14.565Z,9.30
2023-04-09T22:00:43.820Z,9.48
2023-04-09T22:03:11.294Z,10.02
2023-04-09T22:05:38.259Z,9.55
2023-04-09T22:08:04.991Z,9.82
2023-04-09T22:10:32.006Z,11.32
2023-04-09T22:12:59.194Z,11.50
2023-04-09T22:15:26.805Z,11.05
2023-04-09T22:17:54.227Z,10.32
2023-04-09T22:20:22.179Z,10.25
2023-04-09T22:22:52.121Z,12.63
2023-04-09T22:25:20.230Z,10.35
2023-04-09T22:27:54.476Z,9.55
2023-04-09T22:30:25.251Z,11.93
2023-04-09T22:32:53.570Z,10.00
2023-04-09T22:35:21.880Z,12.00
2023-04-09T22:37:49.393Z,11.43
2023-04-09T22:40:18.229Z,11.07
2023-04-09T22:42:48.656Z,12.35
2023-04-09T22:45:16.691Z,10.95
2023-04-09T22:47:48.503Z,12.52
2023-04-09T22:50:16.830Z,12.07
2023-04-09T22:52:46.188Z,11.65
2023-04-09T22:55:13.618Z,12.80
2023-04-09T22:57:43.308Z,12.88
2023-04-09T23:00:11.282Z,10.68
2023-04-09T23:02:39.671Z,11.32
2023-04-09T23:05:09.377Z,13.20
2023-04-09T23:07:40.746Z,11.52
2023-04-09T23:10:15.087Z,12.70
2023-04-09T23:15:09.537Z,13.68
2023-04-09T23:17:36.715Z,10.27
2023-04-09T23:20:03.793Z,10.73
2023-04-09T23:22:30.607Z,13.55
2023-04-09T23:24:57.354Z,12.68
2023-04-09T23:27:28.818Z,16.48
2023-04-09T23:29:56.798Z,13.95
2023-04-09T23:32:24.670Z,12.05
2023-04-09T23:34:51.829Z,11.77
2023-04-09T23:37:19.635Z,15.25
2023-04-09T23:39:50.822Z,11.13
2023-04-09T23:42:19.508Z,12.35
2023-04-09T23:44:47.240Z,11.90
2023-04-09T23:47:14.554Z,9.35
2023-04-09T23:49:41.372Z,10.32
2023-04-09T23:52:08.713Z,10.43
2023-04-09T23:54:36.378Z,10.55
2023-04-09T23:57:03.544Z,10.95
2023-04-09T23:59:35.060Z,12.25
